logo
Search for airport 
image banner adimage banner adimage banner ad
image banner ad

UUDG - BOLSHOYE GRYZLOVO

Located in Bolshoye Gryzlovo, Russian Federation

ICAO - , IATA -

Data provided by Airmate  

General information

Coordinates: N54°47'8" E37°38'48"
Elevation is 788 feet MSL.
Magnetic variation is 11° East
View others Airports in Moscow Oblast

Operational data

Special qualification required
Current time UTC:
Current local time:
Weather at : UUDD - Moscow/Domodedovo ( 71 km )
METAR: UUDD 241130Z 35004MPS 320V050 CAVOK 25/11 Q1012 R32L/CLRD60 NOSIG
TAF: TAF UUDD 241054Z 2412/2518 02003MPS 9999 SCT040 TX26/2412Z TN15/2501Z TEMPO 2412/2418 06008MPS PROB40 TEMPO 2413/2418 -TSRA BKN020CB TEMPO 2506/2516 36009G17MPS -TSRA BKN016CB
View NOTAMs / SUP AIP / TFR affecting this airport [VIEW]
Communications frequencies: [VIEW]

Runways:

RWY identifierQFULength (ft)Width (ft)SurfaceLDA (ft)
01L18°00ASPH
19R198°00ASPH
19L199°00GRAS
01R19°00GRAS
01L18°00ASPH
19R198°00ASPH
19L199°00GRAS
01R19°00GRAS

Airport contact information

Address: Bolshoye Gryzlovo Russian Federation

Satellite view of UUDG